Time;durP1;ratioP1;P1;durP2;ratioP2;P2;SDS_P1;SDS_P2;PMS_P1;PMS_P2;Temp;Humidity;BMP_temperature;BMP_pressure;BME280_temperature;BME280_humidity;BME280_pressure;Samples;Min_cycle;Max_cycle;Signal;HPM_P1;HPM_P2
2023/06/27 00:02:12;;;;;;;;;;;;;;;;;;5135631;27;1044;-64
2023/06/27 00:04:37;;;;;;;;;;;;;;;;;;5135450;27;872;-63
2023/06/27 00:07:03;;;;;;;;;;;;;;;;;;5136025;27;1007;-62
2023/06/27 00:09:28;;;;;;;;;;;;;;;;;;5135264;27;1522;-62
2023/06/27 00:11:53;;;;;;;;;;;;;;;;;;5136181;27;829;-62
2023/06/27 00:14:19;;;;;;;;;;;;;;;;;;5135629;27;844;-62
2023/06/27 00:16:44;;;;;;;;;;;;;;;;;;5136737;27;1973;-62
2023/06/27 00:19:10;;;;;;;;;;;;;;;;;;5135721;27;1029;-62
2023/06/27 00:21:35;;;;;;;;;;;;;;;;;;5135822;27;911;-62
2023/06/27 00:24:01;;;;;;;;;;;;;;;;;;5136352;27;825;-62
2023/06/27 00:26:27;;;;;;;;;;;;;;;;;;5136304;27;817;-62
2023/06/27 00:28:53;;;;;;;;;;;;;;;;;;5117909;27;920;-62
2023/06/27 00:31:18;;;;;;;;;;;;;;;;;;5136248;27;841;-62
2023/06/27 00:33:43;;;;;;;;;;;;;;;;;;5135751;27;964;-63
2023/06/27 00:36:09;;;;;;;;;;;;;;;;;;5136525;27;1899;-62
2023/06/27 00:38:35;;;;;;;;;;;;;;;;;;5135715;27;883;-63
2023/06/27 00:41:00;;;;;;;;;;;;;;;;;;5135716;27;1059;-63
2023/06/27 00:43:28;;;;;;;;;;;;;;;;;;5136145;27;853;-63
2023/06/27 00:45:53;;;;;;;;;;;;;;;;;;5136783;27;817;-62
2023/06/27 00:48:19;;;;;;;;;;;;;;;;;;5136561;27;1058;-62
2023/06/27 00:50:45;;;;;;;;;;;;;;;;;;5136341;27;1046;-62
2023/06/27 00:53:10;;;;;;;;;;;;;;;;;;5136169;27;852;-63
2023/06/27 00:55:37;;;;;;;;;;;;;;;;;;5136296;27;1897;-63
2023/06/27 00:58:03;;;;;;;;;;;;;;;;;;5136116;27;909;-63
2023/06/27 01:00:30;;;;;;;;;;;;;;;;;;5135603;27;1269;-62
2023/06/27 01:02:55;;;;;;;;;;;;;;;;;;5136348;27;888;-62
2023/06/27 01:05:20;;;;;;;;;;;;;;;;;;5117295;27;985;-62
2023/06/27 01:07:46;;;;;;;;;;;;;;;;;;5135743;27;1016;-62
2023/06/27 01:10:21;;;;;;;;;;;;;;;;;;5135629;27;869;-62
2023/06/27 01:12:51;;;;;;;;;;;;;;;;;;5135233;27;846;-62
2023/06/27 01:15:16;;;;;;;;;;;;;;;;;;5134768;27;1910;-62
2023/06/27 01:17:42;;;;;;;;;;;;;;;;;;5134135;27;940;-62
2023/06/27 01:20:07;;;;;;;;;;;;;;;;;;5135172;27;829;-62
2023/06/27 01:22:35;;;;;;;;;;;;;;;;;;5135102;27;926;-62
2023/06/27 01:25:00;;;;;;;;;;;;;;;;;;5134716;27;1008;-62
2023/06/27 01:27:28;;;;;;;;;;;;;;;;;;5134598;27;873;-62
2023/06/27 01:29:53;;;;;;;;;;;;;;;;;;5134587;27;965;-62
2023/06/27 01:32:23;;;;;;;;;;;;;;;;;;5134587;27;904;-62
2023/06/27 01:35:03;;;;;;;;;;;;;;;;;;5134077;27;917;-62
2023/06/27 01:37:30;;;;;;;;;;;;;;;;;;5134120;27;919;-62
2023/06/27 01:40:02;;;;;;;;;;;;;;;;;;5134394;27;1055;-62
2023/06/27 01:42:31;;;;;;;;;;;;;;;;;;5134254;27;1690;-63
2023/06/27 01:44:57;;;;;;;;;;;;;;;;;;5116444;27;1338;-63
2023/06/27 01:47:24;;;;;;;;;;;;;;;;;;5115996;27;924;-62
2023/06/27 01:49:50;;;;;;;;;;;;;;;;;;5134556;27;893;-63
2023/06/27 01:52:15;;;;;;;;;;;;;;;;;;5134456;27;901;-63
2023/06/27 01:54:41;;;;;;;;;;;;;;;;;;5134325;27;1100;-64
2023/06/27 01:57:07;;;;;;;;;;;;;;;;;;5134442;27;1901;-63
2023/06/27 01:59:32;;;;;;;;;;;;;;;;;;5134100;27;1180;-63
2023/06/27 02:01:58;;;;;;;;;;;;;;;;;;5134587;27;857;-62
2023/06/27 02:04:23;;;;;;;;;;;;;;;;;;5134639;27;1091;-62
2023/06/27 02:06:48;;;;;;;;;;;;;;;;;;5115451;27;939;-63
2023/06/27 02:09:13;;;;;;;;;;;;;;;;;;5115553;27;861;-63
2023/06/27 02:11:38;;;;;;;;;;;;;;;;;;5134094;27;853;-63
2023/06/27 02:14:04;;;;;;;;;;;;;;;;;;5133915;27;928;-62
2023/06/27 02:16:29;;;;;;;;;;;;;;;;;;5133741;27;1945;-62
2023/06/27 02:18:54;;;;;;;;;;;;;;;;;;5115925;27;893;-62
2023/06/27 02:21:20;;;;;;;;;;;;;;;;;;5134261;27;996;-62
2023/06/27 02:23:45;;;;;;;;;;;;;;;;;;5133584;27;900;-62
2023/06/27 02:26:10;;;;;;;;;;;;;;;;;;5134523;27;979;-63
2023/06/27 02:28:35;;;;;;;;;;;;;;;;;;5115705;27;878;-63
2023/06/27 02:31:01;;;;;;;;;;;;;;;;;;5134012;27;1031;-62
2023/06/27 02:33:26;;;;;;;;;;;;;;;;;;5134147;27;920;-62
2023/06/27 02:35:51;;;;;;;;;;;;;;;;;;5134468;27;1973;-62
2023/06/27 02:38:17;;;;;;;;;;;;;;;;;;5134348;27;920;-62
2023/06/27 02:40:42;;;;;;;;;;;;;;;;;;5115866;28;1040;-62
2023/06/27 02:43:07;;;;;;;;;;;;;;;;;;5134229;28;1173;-62
2023/06/27 02:45:32;;;;;;;;;;;;;;;;;;5134402;28;837;-62
2023/06/27 02:47:58;;;;;;;;;;;;;;;;;;5134207;28;822;-62
2023/06/27 02:50:23;;;;;;;;;;;;;;;;;;5134184;28;904;-62
2023/06/27 02:52:48;;;;;;;;;;;;;;;;;;5115298;28;1428;-62
2023/06/27 02:55:13;;;;;;;;;;;;;;;;;;5133535;28;1893;-62
2023/06/27 02:57:39;;;;;;;;;;;;;;;;;;5133546;28;987;-62
2023/06/27 03:00:05;;;;;;;;;;;;;;;;;;5133769;28;1062;-62
2023/06/27 03:02:30;;;;;;;;;;;;;;;;;;5133373;28;920;-62
2023/06/27 03:04:55;;;;;;;;;;;;;;;;;;5133165;28;1003;-62
2023/06/27 03:07:20;;;;;;;;;;;;;;;;;;5133311;28;1051;-62
2023/06/27 03:09:45;;;;;;;;;;;;;;;;;;5133424;28;849;-62
2023/06/27 03:12:11;;;;;;;;;;;;;;;;;;5133387;28;937;-62
2023/06/27 03:14:36;;;;;;;;;;;;;;;;;;5114748;28;1414;-62
2023/06/27 03:17:01;;;;;;;;;;;;;;;;;;5133841;28;1957;-62
2023/06/27 03:19:28;;;;;;;;;;;;;;;;;;5133317;28;904;-63
2023/06/27 03:21:53;;;;;;;;;;;;;;;;;;5115311;28;881;-62
2023/06/27 03:24:18;;;;;;;;;;;;;;;;;;5133118;28;822;-62
2023/06/27 03:26:43;;;;;;;;;;;;;;;;;;5114798;28;1031;-63
2023/06/27 03:29:09;;;;;;;;;;;;;;;;;;5133069;28;821;-62
2023/06/27 03:31:34;;;;;;;;;;;;;;;;;;5133016;28;995;-61
2023/06/27 03:33:59;;;;;;;;;;;;;;;;;;5114751;28;876;-62
2023/06/27 03:36:25;;;;;;;;;;;;;;;;;;5114342;28;1897;-62
2023/06/27 03:38:51;;;;;;;;;;;;;;;;;;5132883;27;932;-61
2023/06/27 03:41:16;;;;;;;;;;;;;;;;;;5136493;27;889;-64
2023/06/27 03:43:41;;;;;;;;;;;;;;;;;;5136826;27;849;-63
2023/06/27 03:46:07;;;;;;;;;;;;;;;;;;5136805;27;956;-63
2023/06/27 03:48:32;;;;;;;;;;;;;;;;;;5136822;27;929;-63
2023/06/27 03:50:58;;;;;;;;;;;;;;;;;;5136949;27;1011;-62
2023/06/27 03:53:23;;;;;;;;;;;;;;;;;;5137041;27;813;-62
2023/06/27 03:55:48;;;;;;;;;;;;;;;;;;5136680;27;1941;-62
2023/06/27 03:58:13;;;;;;;;;;;;;;;;;;5136877;27;868;-62
2023/06/27 04:00:41;;;;;;;;;;;;;;;;;;5135898;27;1254;-62
2023/06/27 04:03:06;;;;;;;;;;;;;;;;;;5137428;27;876;-63
2023/06/27 04:05:31;;;;;;;;;;;;;;;;;;5136695;27;852;-63
2023/06/27 04:07:56;;;;;;;;;;;;;;;;;;5136768;27;869;-63
2023/06/27 04:10:22;;;;;;;;;;;;;;;;;;5136604;27;1191;-63
2023/06/27 04:12:47;;;;;;;;;;;;;;;;;;5136741;27;887;-63
2023/06/27 04:15:12;;;;;;;;;;;;;;;;;;5136354;27;1906;-63
2023/06/27 04:17:38;;;;;;;;;;;;;;;;;;5136478;27;996;-63
2023/06/27 04:20:03;;;;;;;;;;;;;;;;;;5136763;27;833;-63
2023/06/27 04:22:28;;;;;;;;;;;;;;;;;;5136765;27;992;-63
2023/06/27 04:24:54;;;;;;;;;;;;;;;;;;5136611;27;912;-63
2023/06/27 04:27:19;;;;;;;;;;;;;;;;;;5136799;27;870;-63
2023/06/27 04:29:44;;;;;;;;;;;;;;;;;;5136769;27;1081;-63
2023/06/27 04:32:09;;;;;;;;;;;;;;;;;;5136915;27;931;-63
2023/06/27 04:34:36;;;;;;;;;;;;;;;;;;5135854;27;861;-63
2023/06/27 04:37:02;;;;;;;;;;;;;;;;;;5135971;27;1963;-63
2023/06/27 04:39:28;;;;;;;;;;;;;;;;;;5133215;27;1210;-63
2023/06/27 04:41:53;;;;;;;;;;;;;;;;;;5116171;28;912;-63
2023/06/27 04:44:20;;;;;;;;;;;;;;;;;;5115247;28;874;-63
2023/06/27 04:46:46;;;;;;;;;;;;;;;;;;5115347;28;918;-63
2023/06/27 04:49:11;;;;;;;;;;;;;;;;;;5115452;28;1035;-63
2023/06/27 04:51:36;;;;;;;;;;;;;;;;;;5113614;28;1238;-63
2023/06/27 04:54:01;;;;;;;;;;;;;;;;;;5114933;28;1225;-63
2023/06/27 04:56:27;;;;;;;;;;;;;;;;;;5115474;28;1917;-63
2023/06/27 04:58:52;;;;;;;;;;;;;;;;;;5115137;27;1198;-62
2023/06/27 05:01:18;;;;;;;;;;;;;;;;;;5135663;27;964;-62
2023/06/27 05:03:43;;;;;;;;;;;;;;;;;;5135520;27;872;-62
2023/06/27 05:06:08;;;;;;;;;;;;;;;;;;5135747;27;932;-62
2023/06/27 05:08:35;;;;;;;;;;;;;;;;;;5135438;27;833;-62
2023/06/27 05:11:01;;;;;;;;;;;;;;;;;;5116509;27;691;-62
2023/06/27 05:13:26;;;;;;;;;;;;;;;;;;5135314;27;900;-63
2023/06/27 05:15:51;;;;;;;;;;;;;;;;;;5135240;27;1997;-63
2023/06/27 05:18:16;;;;;;;;;;;;;;;;;;5135112;27;932;-63
2023/06/27 05:20:42;;;;;;;;;;;;;;;;;;5132379;27;1123;-63
2023/06/27 05:23:08;;;;;;;;;;;;;;;;;;5126939;27;1135;-63
2023/06/27 05:25:33;;;;;;;;;;;;;;;;;;5112375;28;1171;-63
2023/06/27 05:27:59;;;;;;;;;;;;;;;;;;5114050;28;837;-63
2023/06/27 05:30:28;;;;;;;;;;;;;;;;;;5114477;28;853;-63
2023/06/27 05:32:54;;;;;;;;;;;;;;;;;;5113945;28;1317;-62
2023/06/27 05:35:20;;;;;;;;;;;;;;;;;;5113983;28;1960;-62
2023/06/27 05:37:45;;;;;;;;;;;;;;;;;;5113121;28;876;-62
2023/06/27 05:40:11;;;;;;;;;;;;;;;;;;5095946;28;1066;-62
2023/06/27 05:42:36;;;;;;;;;;;;;;;;;;5113796;28;921;-62
2023/06/27 05:45:02;;;;;;;;;;;;;;;;;;5113994;28;1008;-62
2023/06/27 05:47:27;;;;;;;;;;;;;;;;;;5095808;28;1457;-62
2023/06/27 05:49:53;;;;;;;;;;;;;;;;;;5078606;28;1160;-62
2023/06/27 05:52:18;;;;;;;;;;;;;;;;;;5114422;28;928;-62
2023/06/27 05:54:43;;;;;;;;;;;;;;;;;;5114308;28;1062;-63
2023/06/27 05:57:09;;;;;;;;;;;;;;;;;;5095371;28;1893;-63
2023/06/27 05:59:34;;;;;;;;;;;;;;;;;;5101532;27;1482;-63
2023/06/27 06:02:00;;;;;;;;;;;;;;;;;;5133815;27;1028;-63
2023/06/27 06:04:25;;;;;;;;;;;;;;;;;;5134428;27;868;-63
2023/06/27 06:06:50;;;;;;;;;;;;;;;;;;5134747;27;928;-63
2023/06/27 06:09:16;;;;;;;;;;;;;;;;;;5134321;27;988;-64
2023/06/27 06:11:41;;;;;;;;;;;;;;;;;;5115699;27;1276;-64
2023/06/27 06:14:06;;;;;;;;;;;;;;;;;;5134143;27;1043;-63
2023/06/27 06:16:32;;;;;;;;;;;;;;;;;;5134404;27;1981;-63
2023/06/27 06:18:58;;;;;;;;;;;;;;;;;;5134487;27;845;-63
2023/06/27 06:21:23;;;;;;;;;;;;;;;;;;5134875;27;849;-63
2023/06/27 06:23:49;;;;;;;;;;;;;;;;;;5134434;27;873;-64
2023/06/27 06:26:14;;;;;;;;;;;;;;;;;;5098838;27;1452;-63
2023/06/27 06:28:40;;;;;;;;;;;;;;;;;;5133999;27;960;-63
2023/06/27 06:31:05;;;;;;;;;;;;;;;;;;5133697;27;932;-63
2023/06/27 06:33:30;;;;;;;;;;;;;;;;;;5133814;27;1297;-61
2023/06/27 06:35:57;;;;;;;;;;;;;;;;;;5134011;27;1874;-61
2023/06/27 06:38:23;;;;;;;;;;;;;;;;;;5115011;28;1277;-63
2023/06/27 06:40:48;;;;;;;;;;;;;;;;;;5115341;28;1937;-63
2023/06/27 06:43:14;;;;;;;;;;;;;;;;;;5133392;28;836;-63
2023/06/27 06:45:39;;;;;;;;;;;;;;;;;;5133658;28;876;-62
2023/06/27 06:48:04;;;;;;;;;;;;;;;;;;5133760;28;904;-62
2023/06/27 06:50:31;;;;;;;;;;;;;;;;;;5133952;28;900;-62
2023/06/27 06:52:57;;;;;;;;;;;;;;;;;;5133655;28;830;-62
2023/06/27 06:55:23;;;;;;;;;;;;;;;;;;5133509;28;1961;-62
2023/06/27 06:57:48;;;;;;;;;;;;;;;;;;5133729;28;984;-62
2023/06/27 07:00:14;;;;;;;;;;;;;;;;;;5133718;28;1036;-62
2023/06/27 07:02:39;;;;;;;;;;;;;;;;;;5133607;28;821;-62
2023/06/27 07:05:05;;;;;;;;;;;;;;;;;;5133179;28;932;-63
2023/06/27 07:07:30;;;;;;;;;;;;;;;;;;5133934;28;837;-62
2023/06/27 07:09:55;;;;;;;;;;;;;;;;;;5133337;28;830;-62
2023/06/27 07:12:20;;;;;;;;;;;;;;;;;;5133324;28;1019;-63
2023/06/27 07:14:46;;;;;;;;;;;;;;;;;;5134235;27;916;-62
2023/06/27 07:17:11;;;;;;;;;;;;;;;;;;5137457;27;1921;-62
2023/06/27 07:19:36;;;;;;;;;;;;;;;;;;5137586;27;924;-63
2023/06/27 07:22:02;;;;;;;;;;;;;;;;;;5137650;27;806;-62
2023/06/27 07:24:27;;;;;;;;;;;;;;;;;;5137597;27;1450;-62
2023/06/27 07:26:52;;;;;;;;;;;;;;;;;;5119288;27;995;-62
2023/06/27 07:29:18;;;;;;;;;;;;;;;;;;5137326;27;826;-62
2023/06/27 07:31:43;;;;;;;;;;;;;;;;;;5137357;27;925;-62
2023/06/27 07:34:08;;;;;;;;;;;;;;;;;;5137978;27;837;-62
2023/06/27 07:36:34;;;;;;;;;;;;;;;;;;5137812;27;1981;-62
2023/06/27 07:38:59;;;;;;;;;;;;;;;;;;5138091;27;856;-62
2023/06/27 07:41:25;;;;;;;;;;;;;;;;;;5138433;27;966;-61
2023/06/27 07:43:50;;;;;;;;;;;;;;;;;;5138502;27;869;-61
2023/06/27 07:46:16;;;;;;;;;;;;;;;;;;5138265;27;844;-62
2023/06/27 07:48:41;;;;;;;;;;;;;;;;;;5137941;27;952;-62
2023/06/27 07:51:06;;;;;;;;;;;;;;;;;;5137897;27;912;-62
2023/06/27 07:53:31;;;;;;;;;;;;;;;;;;5138037;27;889;-62
2023/06/27 07:55:57;;;;;;;;;;;;;;;;;;5138256;27;1954;-61
2023/06/27 07:58:23;;;;;;;;;;;;;;;;;;5102405;27;1140;-62
2023/06/27 08:00:49;;;;;;;;;;;;;;;;;;5137756;27;1245;-61
2023/06/27 08:03:14;;;;;;;;;;;;;;;;;;5137962;27;931;-62
2023/06/27 08:05:39;;;;;;;;;;;;;;;;;;5137639;27;931;-61
2023/06/27 08:08:04;;;;;;;;;;;;;;;;;;5136643;27;1204;-61
2023/06/27 08:10:30;;;;;;;;;;;;;;;;;;5117465;27;1162;-62
2023/06/27 08:12:55;;;;;;;;;;;;;;;;;;5121419;27;1139;-62
2023/06/27 08:15:22;;;;;;;;;;;;;;;;;;5119638;27;1910;-61
2023/06/27 08:17:48;;;;;;;;;;;;;;;;;;5114046;27;1146;-62
2023/06/27 08:20:13;;;;;;;;;;;;;;;;;;5115121;28;1159;-62
2023/06/27 08:22:38;;;;;;;;;;;;;;;;;;5116196;28;1027;-62
2023/06/27 08:25:04;;;;;;;;;;;;;;;;;;5115246;28;845;-61
2023/06/27 08:27:29;;;;;;;;;;;;;;;;;;5115992;28;826;-62
2023/06/27 08:29:55;;;;;;;;;;;;;;;;;;5115806;28;952;-62
2023/06/27 08:32:20;;;;;;;;;;;;;;;;;;5116041;28;1015;-62
2023/06/27 08:34:45;;;;;;;;;;;;;;;;;;5115962;28;1079;-61
2023/06/27 08:37:11;;;;;;;;;;;;;;;;;;5096486;28;1968;-62
2023/06/27 08:39:36;;;;;;;;;;;;;;;;;;5114836;28;914;-62
2023/06/27 08:42:02;;;;;;;;;;;;;;;;;;5115492;28;834;-62
2023/06/27 08:44:27;;;;;;;;;;;;;;;;;;5115892;28;825;-62
2023/06/27 08:46:55;;;;;;;;;;;;;;;;;;5097589;28;894;-62
2023/06/27 08:49:23;;;;;;;;;;;;;;;;;;5115421;28;849;-62
2023/06/27 08:51:52;;;;;;;;;;;;;;;;;;5115342;28;924;-62
2023/06/27 08:54:30;;;;;;;;;;;;;;;;;;5115307;28;1697;-62
2023/06/27 08:56:56;;;;;;;;;;;;;;;;;;5115280;28;1961;-62
2023/06/27 08:59:23;;;;;;;;;;;;;;;;;;5115042;28;877;-62
2023/06/27 09:01:49;;;;;;;;;;;;;;;;;;5115180;28;920;-62
2023/06/27 09:04:15;;;;;;;;;;;;;;;;;;5115193;28;980;-62
2023/06/27 09:06:40;;;;;;;;;;;;;;;;;;5115069;28;944;-62
2023/06/27 09:09:06;;;;;;;;;;;;;;;;;;5114182;28;1030;-62
2023/06/27 09:11:31;;;;;;;;;;;;;;;;;;5114392;28;933;-62
2023/06/27 09:13:57;;;;;;;;;;;;;;;;;;5115199;28;837;-62
2023/06/27 09:16:22;;;;;;;;;;;;;;;;;;5096499;28;1987;-64
2023/06/27 09:18:48;;;;;;;;;;;;;;;;;;5115315;28;1178;-62
2023/06/27 09:21:14;;;;;;;;;;;;;;;;;;5096595;28;1032;-62
2023/06/27 09:23:40;;;;;;;;;;;;;;;;;;5096489;28;1028;-62
2023/06/27 09:26:12;;;;;;;;;;;;;;;;;;5115095;28;845;-62
2023/06/27 09:28:48;;;;;;;;;;;;;;;;;;5115560;28;884;-62
2023/06/27 09:31:13;;;;;;;;;;;;;;;;;;5114200;28;936;-62
2023/06/27 09:33:39;;;;;;;;;;;;;;;;;;5114764;28;928;-62
2023/06/27 09:36:05;;;;;;;;;;;;;;;;;;5115345;28;1890;-62
2023/06/27 09:38:32;;;;;;;;;;;;;;;;;;5113904;28;976;-62
2023/06/27 09:41:04;;;;;;;;;;;;;;;;;;5114747;28;932;-62
2023/06/27 09:43:36;;;;;;;;;;;;;;;;;;5114552;28;987;-61
2023/06/27 09:46:01;;;;;;;;;;;;;;;;;;5115206;28;1008;-62
2023/06/27 09:48:30;;;;;;;;;;;;;;;;;;5114289;28;923;-62
2023/06/27 09:51:02;;;;;;;;;;;;;;;;;;5115142;28;841;-62
2023/06/27 09:53:31;;;;;;;;;;;;;;;;;;5114492;28;839;-62
2023/06/27 09:55:59;;;;;;;;;;;;;;;;;;5114914;28;1878;-62
2023/06/27 09:58:28;;;;;;;;;;;;;;;;;;5114212;28;990;-62
2023/06/27 10:00:54;;;;;;;;;;;;;;;;;;5126590;27;1040;-62
2023/06/27 10:03:21;;;;;;;;;;;;;;;;;;5134429;27;1050;-62
2023/06/27 10:05:46;;;;;;;;;;;;;;;;;;5134403;27;993;-63
2023/06/27 10:08:12;;;;;;;;;;;;;;;;;;5133037;27;1560;-62
2023/06/27 10:10:37;;;;;;;;;;;;;;;;;;5134249;27;856;-62
2023/06/27 10:13:03;;;;;;;;;;;;;;;;;;5133367;27;885;-62
2023/06/27 10:15:28;;;;;;;;;;;;;;;;;;5133575;27;2049;-62
2023/06/27 10:17:54;;;;;;;;;;;;;;;;;;5134730;27;970;-62
2023/06/27 10:20:19;;;;;;;;;;;;;;;;;;5134249;27;897;-62
2023/06/27 10:22:45;;;;;;;;;;;;;;;;;;5134037;27;932;-63
2023/06/27 10:25:11;;;;;;;;;;;;;;;;;;5134575;27;881;-62
2023/06/27 10:27:42;;;;;;;;;;;;;;;;;;5133639;27;1336;-62
2023/06/27 10:30:20;;;;;;;;;;;;;;;;;;5134055;27;969;-63
2023/06/27 10:32:47;;;;;;;;;;;;;;;;;;5134271;27;972;-63
2023/06/27 10:35:25;;;;;;;;;;;;;;;;;;5133673;27;1893;-62
2023/06/27 10:38:19;;;;;;;;;;;;;;;;;;5134525;27;869;-62
2023/06/27 10:40:58;;;;;;;;;;;;;;;;;;5115716;27;1550;-62
2023/06/27 10:43:36;;;;;;;;;;;;;;;;;;5133779;28;897;-62
2023/06/27 10:46:09;;;;;;;;;;;;;;;;;;5133989;28;948;-62
2023/06/27 10:48:35;;;;;;;;;;;;;;;;;;5134096;27;920;-62
2023/06/27 10:51:06;;;;;;;;;;;;;;;;;;5137910;27;904;-62
2023/06/27 10:53:32;;;;;;;;;;;;;;;;;;5137493;27;948;-62
2023/06/27 10:55:57;;;;;;;;;;;;;;;;;;5138162;27;1902;-62
2023/06/27 10:58:26;;;;;;;;;;;;;;;;;;5138530;27;996;-62
2023/06/27 11:00:52;;;;;;;;;;;;;;;;;;5138067;27;1183;-62
2023/06/27 11:03:19;;;;;;;;;;;;;;;;;;5137731;27;1012;-62
2023/06/27 11:05:44;;;;;;;;;;;;;;;;;;5137789;27;979;-63
2023/06/27 11:08:19;;;;;;;;;;;;;;;;;;5138208;27;815;-62
2023/06/27 11:10:48;;;;;;;;;;;;;;;;;;5137544;27;900;-62
2023/06/27 11:13:14;;;;;;;;;;;;;;;;;;5137355;27;944;-62
2023/06/27 11:15:40;;;;;;;;;;;;;;;;;;5136782;27;1959;-63
2023/06/27 11:18:05;;;;;;;;;;;;;;;;;;5137886;27;932;-62
2023/06/27 11:20:31;;;;;;;;;;;;;;;;;;5138122;27;956;-62
2023/06/27 11:23:00;;;;;;;;;;;;;;;;;;5138079;27;955;-63
2023/06/27 11:25:25;;;;;;;;;;;;;;;;;;5137349;27;824;-62
2023/06/27 11:27:57;;;;;;;;;;;;;;;;;;5138199;27;841;-62
2023/06/27 11:30:25;;;;;;;;;;;;;;;;;;5137902;27;880;-63
2023/06/27 11:32:54;;;;;;;;;;;;;;;;;;5137941;27;778;-62
2023/06/27 11:35:20;;;;;;;;;;;;;;;;;;5136803;27;1898;-63
2023/06/27 11:37:46;;;;;;;;;;;;;;;;;;5137823;27;943;-62
2023/06/27 11:40:15;;;;;;;;;;;;;;;;;;5137570;27;876;-63
2023/06/27 11:42:40;;;;;;;;;;;;;;;;;;5136863;27;872;-63
2023/06/27 11:45:10;;;;;;;;;;;;;;;;;;5137260;27;1529;-63
2023/06/27 11:47:35;;;;;;;;;;;;;;;;;;5136816;27;1366;-63
2023/06/27 11:50:08;;;;;;;;;;;;;;;;;;5137294;27;893;-63
2023/06/27 11:52:37;;;;;;;;;;;;;;;;;;5136899;27;821;-63
2023/06/27 11:55:04;;;;;;;;;;;;;;;;;;5137329;27;885;-63
2023/06/27 11:57:41;;;;;;;;;;;;;;;;;;5136115;27;1982;-64
2023/06/27 12:00:12;;;;;;;;;;;;;;;;;;5136113;27;1265;-63
2023/06/27 12:02:37;;;;;;;;;;;;;;;;;;5136675;27;904;-63
2023/06/27 12:05:03;;;;;;;;;;;;;;;;;;5137013;27;991;-63
2023/06/27 12:07:28;;;;;;;;;;;;;;;;;;5136511;27;865;-63
2023/06/27 12:10:03;;;;;;;;;;;;;;;;;;5136577;27;917;-63
2023/06/27 12:12:33;;;;;;;;;;;;;;;;;;5136541;27;988;-63
2023/06/27 12:15:11;;;;;;;;;;;;;;;;;;5136679;27;911;-63
2023/06/27 12:17:37;;;;;;;;;;;;;;;;;;5136090;27;1909;-63
2023/06/27 12:20:04;;;;;;;;;;;;;;;;;;5136465;27;1179;-63
2023/06/27 12:22:30;;;;;;;;;;;;;;;;;;5117885;27;841;-63
2023/06/27 12:24:55;;;;;;;;;;;;;;;;;;5136595;27;932;-63
2023/06/27 12:27:20;;;;;;;;;;;;;;;;;;5136613;27;837;-63
2023/06/27 12:29:45;;;;;;;;;;;;;;;;;;5136034;27;916;-63
2023/06/27 12:32:11;;;;;;;;;;;;;;;;;;5135907;27;906;-63
2023/06/27 12:34:36;;;;;;;;;;;;;;;;;;5136014;27;876;-63
2023/06/27 12:37:01;;;;;;;;;;;;;;;;;;5136652;27;1960;-63
2023/06/27 12:39:27;;;;;;;;;;;;;;;;;;5136560;27;876;-63
2023/06/27 12:41:52;;;;;;;;;;;;;;;;;;5137232;27;1075;-63
2023/06/27 12:44:18;;;;;;;;;;;;;;;;;;5137344;27;844;-63
2023/06/27 12:46:44;;;;;;;;;;;;;;;;;;5136880;27;845;-63
2023/06/27 12:49:09;;;;;;;;;;;;;;;;;;5136906;27;889;-63
2023/06/27 12:51:35;;;;;;;;;;;;;;;;;;5136951;27;1047;-63
2023/06/27 12:54:00;;;;;;;;;;;;;;;;;;5136717;27;818;-63
2023/06/27 12:56:25;;;;;;;;;;;;;;;;;;5136245;27;1960;-63
2023/06/27 12:58:52;;;;;;;;;;;;;;;;;;5135397;27;924;-63
2023/06/27 13:01:21;;;;;;;;;;;;;;;;;;5135813;27;1097;-63
2023/06/27 13:03:47;;;;;;;;;;;;;;;;;;5135832;27;896;-63
2023/06/27 13:06:12;;;;;;;;;;;;;;;;;;5136295;27;1006;-63
2023/06/27 13:08:37;;;;;;;;;;;;;;;;;;5135203;27;1023;-62
2023/06/27 13:11:03;;;;;;;;;;;;;;;;;;5135401;27;940;-62
2023/06/27 13:13:28;;;;;;;;;;;;;;;;;;5134397;27;904;-63
2023/06/27 13:15:54;;;;;;;;;;;;;;;;;;5135407;27;1964;-63
2023/06/27 13:18:19;;;;;;;;;;;;;;;;;;5136119;27;1078;-63
2023/06/27 13:20:45;;;;;;;;;;;;;;;;;;5135103;27;888;-62
2023/06/27 13:23:12;;;;;;;;;;;;;;;;;;5135125;27;873;-63
2023/06/27 13:25:37;;;;;;;;;;;;;;;;;;5135038;27;853;-62
2023/06/27 13:28:02;;;;;;;;;;;;;;;;;;5136014;27;876;-62
2023/06/27 13:30:28;;;;;;;;;;;;;;;;;;5135294;27;952;-63
2023/06/27 13:32:53;;;;;;;;;;;;;;;;;;5135180;27;1214;-63
2023/06/27 13:35:19;;;;;;;;;;;;;;;;;;5112943;27;1898;-62
2023/06/27 13:37:45;;;;;;;;;;;;;;;;;;5112629;27;1211;-62
2023/06/27 13:40:11;;;;;;;;;;;;;;;;;;5125583;27;1206;-62
2023/06/27 13:42:36;;;;;;;;;;;;;;;;;;5132996;27;1194;-63
2023/06/27 13:45:02;;;;;;;;;;;;;;;;;;5135220;27;818;-63
2023/06/27 13:47:27;;;;;;;;;;;;;;;;;;5134048;27;1214;-63
2023/06/27 13:49:53;;;;;;;;;;;;;;;;;;5116549;27;901;-62
2023/06/27 13:52:18;;;;;;;;;;;;;;;;;;5134408;27;845;-62
2023/06/27 13:54:44;;;;;;;;;;;;;;;;;;5133789;27;976;-63
2023/06/27 13:57:14;;;;;;;;;;;;;;;;;;5133874;27;1898;-63
2023/06/27 13:59:39;;;;;;;;;;;;;;;;;;5116117;27;1206;-63
2023/06/27 14:02:05;;;;;;;;;;;;;;;;;;5134300;27;842;-63
2023/06/27 14:04:30;;;;;;;;;;;;;;;;;;5133928;27;874;-63
2023/06/27 14:06:55;;;;;;;;;;;;;;;;;;5134427;27;845;-63
2023/06/27 14:09:21;;;;;;;;;;;;;;;;;;5134112;27;968;-63
2023/06/27 14:11:52;;;;;;;;;;;;;;;;;;5134209;27;888;-63
2023/06/27 14:14:19;;;;;;;;;;;;;;;;;;5134043;27;930;-64
2023/06/27 14:16:45;;;;;;;;;;;;;;;;;;5133800;27;1968;-63
2023/06/27 14:19:10;;;;;;;;;;;;;;;;;;5134252;27;836;-63
2023/06/27 14:21:36;;;;;;;;;;;;;;;;;;5134264;27;797;-63
2023/06/27 14:24:02;;;;;;;;;;;;;;;;;;5134386;27;865;-63
2023/06/27 14:26:27;;;;;;;;;;;;;;;;;;5134300;27;861;-63
2023/06/27 14:28:52;;;;;;;;;;;;;;;;;;5134450;27;853;-63
2023/06/27 14:31:18;;;;;;;;;;;;;;;;;;5134134;27;924;-63
2023/06/27 14:33:44;;;;;;;;;;;;;;;;;;5134588;27;845;-63
2023/06/27 14:36:09;;;;;;;;;;;;;;;;;;5134499;27;1886;-63
2023/06/27 14:38:34;;;;;;;;;;;;;;;;;;5133990;27;874;-63
2023/06/27 14:41:00;;;;;;;;;;;;;;;;;;5115780;27;971;-63
2023/06/27 14:43:25;;;;;;;;;;;;;;;;;;5134801;27;1183;-62
2023/06/27 14:45:50;;;;;;;;;;;;;;;;;;5134772;27;1019;-62
2023/06/27 14:48:15;;;;;;;;;;;;;;;;;;5134555;28;1004;-62
2023/06/27 14:50:41;;;;;;;;;;;;;;;;;;5133575;28;837;-62
2023/06/27 14:53:06;;;;;;;;;;;;;;;;;;5134030;28;912;-62
2023/06/27 14:55:32;;;;;;;;;;;;;;;;;;5133894;28;1960;-63
2023/06/27 14:57:58;;;;;;;;;;;;;;;;;;5099105;28;1802;-62
2023/06/27 15:00:23;;;;;;;;;;;;;;;;;;5133995;28;1199;-63
2023/06/27 15:02:49;;;;;;;;;;;;;;;;;;5133450;28;972;-62
2023/06/27 15:05:14;;;;;;;;;;;;;;;;;;5133696;28;920;-63
2023/06/27 15:07:39;;;;;;;;;;;;;;;;;;5133837;28;857;-63
2023/06/27 15:10:07;;;;;;;;;;;;;;;;;;5133249;28;821;-63
2023/06/27 15:12:32;;;;;;;;;;;;;;;;;;5133014;28;864;-63
2023/06/27 15:14:58;;;;;;;;;;;;;;;;;;5133156;28;932;-63
2023/06/27 15:17:24;;;;;;;;;;;;;;;;;;5133891;28;1901;-62
2023/06/27 15:19:49;;;;;;;;;;;;;;;;;;5133583;28;951;-62
2023/06/27 15:22:14;;;;;;;;;;;;;;;;;;5125341;28;1253;-62
2023/06/27 15:24:40;;;;;;;;;;;;;;;;;;5112539;28;821;-62
2023/06/27 15:27:05;;;;;;;;;;;;;;;;;;5113334;28;864;-62
2023/06/27 15:29:30;;;;;;;;;;;;;;;;;;5113001;28;1038;-63
2023/06/27 15:31:56;;;;;;;;;;;;;;;;;;5078814;28;1902;-63
2023/06/27 15:34:21;;;;;;;;;;;;;;;;;;5113483;28;920;-62
2023/06/27 15:36:46;;;;;;;;;;;;;;;;;;5097342;28;1906;-60
2023/06/27 15:39:12;;;;;;;;;;;;;;;;;;5098078;28;1159;-64
2023/06/27 15:41:37;;;;;;;;;;;;;;;;;;5080893;28;861;-63
2023/06/27 15:44:02;;;;;;;;;;;;;;;;;;5116836;28;968;-62
2023/06/27 15:46:28;;;;;;;;;;;;;;;;;;5116835;28;960;-63
2023/06/27 15:48:53;;;;;;;;;;;;;;;;;;5098368;28;925;-63
2023/06/27 15:51:19;;;;;;;;;;;;;;;;;;5116426;28;916;-63
2023/06/27 15:53:44;;;;;;;;;;;;;;;;;;5097771;28;1895;-63
2023/06/27 15:56:10;;;;;;;;;;;;;;;;;;5116107;28;1952;-63
2023/06/27 15:58:35;;;;;;;;;;;;;;;;;;5116125;28;821;-63
2023/06/27 16:01:00;;;;;;;;;;;;;;;;;;5129657;27;1262;-63
2023/06/27 16:03:26;;;;;;;;;;;;;;;;;;5137333;27;887;-63
2023/06/27 16:05:51;;;;;;;;;;;;;;;;;;5118493;27;927;-63
2023/06/27 16:08:16;;;;;;;;;;;;;;;;;;5118858;27;900;-63
2023/06/27 16:10:42;;;;;;;;;;;;;;;;;;5118406;27;908;-63
2023/06/27 16:13:08;;;;;;;;;;;;;;;;;;5136985;27;889;-63
2023/06/27 16:15:34;;;;;;;;;;;;;;;;;;5136461;27;1910;-63
2023/06/27 16:17:59;;;;;;;;;;;;;;;;;;5136329;27;834;-63
2023/06/27 16:20:25;;;;;;;;;;;;;;;;;;5136676;27;963;-63
2023/06/27 16:22:50;;;;;;;;;;;;;;;;;;5136419;27;892;-64
2023/06/27 16:25:15;;;;;;;;;;;;;;;;;;5118806;27;845;-61
2023/06/27 16:27:40;;;;;;;;;;;;;;;;;;5135927;27;893;-63
2023/06/27 16:30:06;;;;;;;;;;;;;;;;;;5136792;27;881;-62
2023/06/27 16:32:33;;;;;;;;;;;;;;;;;;5135955;27;1044;-62
2023/06/27 16:35:01;;;;;;;;;;;;;;;;;;5136529;27;940;-62
2023/06/27 16:37:26;;;;;;;;;;;;;;;;;;5136692;27;1956;-64
2023/06/27 16:39:52;;;;;;;;;;;;;;;;;;5136365;27;740;-61
2023/06/27 16:42:17;;;;;;;;;;;;;;;;;;5136667;27;861;-61
2023/06/27 16:44:43;;;;;;;;;;;;;;;;;;5137024;27;888;-62
2023/06/27 16:47:08;;;;;;;;;;;;;;;;;;5136713;27;821;-62
2023/06/27 16:49:33;;;;;;;;;;;;;;;;;;5129457;27;1182;-62
2023/06/27 16:51:59;;;;;;;;;;;;;;;;;;5116942;27;1152;-62
2023/06/27 16:54:24;;;;;;;;;;;;;;;;;;5112948;28;1257;-62
2023/06/27 16:56:49;;;;;;;;;;;;;;;;;;5126152;27;1910;-62
2023/06/27 16:59:15;;;;;;;;;;;;;;;;;;5118606;27;1171;-62
2023/06/27 17:01:40;;;;;;;;;;;;;;;;;;5133210;27;1330;-62
2023/06/27 17:04:05;;;;;;;;;;;;;;;;;;5130262;27;1213;-62
2023/06/27 17:06:31;;;;;;;;;;;;;;;;;;5116280;27;1273;-62